Terminal Aerodrome Forecast
Issued by NWS

Home | Current Version | Previous Version | Text Only | Print | Product List | Glossary On
Versions: 1 2 3 4 5 6 7 8 9 10 11 12 13 14 15 16 17 18 19 20 21 22 23 24 25 26 27 28 29 30 31 32 33 34 35
000
FTUS45 KGJT 050542
TAFMTJ
TAF
KMTJ 050542Z 0506/0606 12008KT P6SM SCT100 OVC150
      TEMPO 0507/0509 VRB10G20KT -TSRA BKN060CB OVC090
     FM051000 15005KT P6SM VCSH SCT090 BKN120
     FM051900 34005KT P6SM SCT090 SCT150
     FM060200 17005KT P6SM SCT150=

USA.gov is the U.S. government's official web portal to all federal, state and local government web resources and services.